Time;durP1;ratioP1;P1;durP2;ratioP2;P2;SDS_P1;SDS_P2;PMS_P1;PMS_P2;Temp;Humidity;BMP_temperature;BMP_pressure;BME280_temperature;BME280_humidity;BME280_pressure;Samples;Min_cycle;Max_cycle;Signal;HPM_P1;HPM_P2
2021/08/26 00:00:28;;;;;;;;;31.50;28.25;;;;;;;;5055578;28;51077;-47
2021/08/26 00:05:50;;;;;;;;;27.00;27.00;;;;;;;;5073748;28;50955;-48
2021/08/26 00:08:16;;;;;;;;;28.50;26.50;;;;;;;;5070267;28;53018;-47
2021/08/26 00:10:42;;;;;;;;;28.00;27.00;;;;;;;;5067481;28;50986;-49
2021/08/26 00:13:09;;;;;;;;;28.00;26.25;;;;;;;;5068561;28;51184;-46
2021/08/26 00:15:34;;;;;;;;;24.75;24.00;;;;;;;;5073904;28;51171;-48
2021/08/26 00:17:59;;;;;;;;;24.00;23.50;;;;;;;;5073190;28;51803;-48
2021/08/26 00:20:26;;;;;;;;;28.00;27.75;;;;;;;;5073522;28;51123;-47
2021/08/26 00:22:51;;;;;;;;;29.50;27.50;;;;;;;;5069266;28;51203;-49
2021/08/26 00:25:16;;;;;;;;;23.00;22.25;;;;;;;;5067486;28;51194;-47
2021/08/26 00:27:41;;;;;;;;;26.00;25.50;;;;;;;;5054621;28;51107;-50
2021/08/26 00:30:07;;;;;;;;;28.25;28.25;;;;;;;;5069410;28;50993;-50
2021/08/26 00:32:32;;;;;;;;;25.00;23.50;;;;;;;;5059817;28;50941;-49
2021/08/26 00:34:57;;;;;;;;;26.75;25.75;;;;;;;;5073630;28;51153;-48
2021/08/26 00:37:22;;;;;;;;;26.00;25.25;;;;;;;;5054609;28;54553;-48
2021/08/26 00:39:48;;;;;;;;;26.25;25.50;;;;;;;;5073399;28;50938;-51
2021/08/26 00:42:13;;;;;;;;;22.00;22.00;;;;;;;;5071733;28;51105;-48
2021/08/26 00:44:39;;;;;;;;;27.00;26.50;;;;;;;;5062781;28;50958;-50
2021/08/26 00:47:04;;;;;;;;;25.50;24.75;;;;;;;;5072729;28;53454;-50
2021/08/26 00:49:30;;;;;;;;;24.75;24.50;;;;;;;;5071925;28;50883;-48
2021/08/26 00:51:56;;;;;;;;;26.25;24.00;;;;;;;;5054803;28;51186;-50
2021/08/26 00:54:21;;;;;;;;;26.75;24.75;;;;;;;;5073285;28;50924;-49
2021/08/26 00:56:46;;;;;;;;;21.25;21.00;;;;;;;;5072618;28;51945;-48
2021/08/26 00:59:12;;;;;;;;;21.00;21.00;;;;;;;;5061434;27;50885;-47
2021/08/26 01:01:45;;;;;;;;;23.00;21.75;;;;;;;;5069222;28;51333;-48
2021/08/26 01:04:10;;;;;;;;;23.50;21.00;;;;;;;;5042789;28;50947;-47
2021/08/26 01:06:54;;;;;;;;;21.00;20.00;;;;;;;;5066223;28;51883;-47
2021/08/26 01:09:20;;;;;;;;;18.00;18.00;;;;;;;;5053078;28;51095;-46
2021/08/26 01:11:46;;;;;;;;;19.25;18.00;;;;;;;;5072360;28;51168;-50
2021/08/26 01:14:14;;;;;;;;;13.25;12.50;;;;;;;;5054457;28;51176;-47
2021/08/26 01:16:39;;;;;;;;;18.00;18.00;;;;;;;;5070307;28;52063;-48
2021/08/26 01:19:04;;;;;;;;;19.25;18.75;;;;;;;;5072848;28;51295;-52
2021/08/26 01:21:30;;;;;;;;;19.00;18.25;;;;;;;;5057706;28;51299;-47
2021/08/26 01:23:58;;;;;;;;;15.50;14.75;;;;;;;;5073112;27;50981;-50
2021/08/26 01:26:43;;;;;;;;;16.00;16.00;;;;;;;;5072263;28;52182;-47
2021/08/26 01:29:10;;;;;;;;;21.75;20.75;;;;;;;;5069148;28;51167;-50
2021/08/26 01:31:38;;;;;;;;;14.50;14.50;;;;;;;;5058434;28;51062;-50
2021/08/26 01:34:03;;;;;;;;;17.00;16.00;;;;;;;;5071763;28;50812;-49
2021/08/26 01:36:29;;;;;;;;;17.25;16.50;;;;;;;;5070867;28;52997;-49
2021/08/26 01:39:13;;;;;;;;;13.75;13.75;;;;;;;;5072392;28;51324;-47
2021/08/26 01:41:39;;;;;;;;;15.00;14.00;;;;;;;;5059487;28;50815;-49
2021/08/26 01:44:04;;;;;;;;;16.00;16.00;;;;;;;;5072200;28;51161;-48
2021/08/26 01:46:29;;;;;;;;;16.75;15.25;;;;;;;;5072244;28;52227;-47
2021/08/26 01:48:55;;;;;;;;;18.00;15.25;;;;;;;;5069381;28;50986;-46
2021/08/26 01:51:20;;;;;;;;;13.00;13.00;;;;;;;;5070945;28;51084;-48
2021/08/26 01:53:45;;;;;;;;;15.00;13.00;;;;;;;;5070838;28;50922;-49
2021/08/26 01:56:10;;;;;;;;;16.00;16.00;;;;;;;;5070919;28;52114;-49
2021/08/26 01:58:35;;;;;;;;;14.25;13.75;;;;;;;;5071861;28;51127;-49
2021/08/26 02:01:01;;;;;;;;;13.00;13.00;;;;;;;;5067203;28;51704;-51
2021/08/26 02:03:26;;;;;;;;;15.25;14.75;;;;;;;;5072235;28;51028;-50
2021/08/26 02:05:51;;;;;;;;;15.00;14.00;;;;;;;;5052811;28;53224;-49
2021/08/26 02:08:16;;;;;;;;;12.25;12.25;;;;;;;;5067811;28;50949;-51
2021/08/26 02:10:41;;;;;;;;;14.50;14.50;;;;;;;;5050071;28;51281;-48
2021/08/26 02:13:07;;;;;;;;;12.33;12.33;;;;;;;;5069116;28;50998;-50
2021/08/26 02:15:32;;;;;;;;;14.00;14.00;;;;;;;;5072009;28;51157;-49
2021/08/26 02:17:57;;;;;;;;;12.25;11.75;;;;;;;;5072044;28;51045;-49
2021/08/26 02:20:22;;;;;;;;;14.75;14.50;;;;;;;;5070454;28;51012;-50
2021/08/26 02:22:47;;;;;;;;;15.00;14.00;;;;;;;;5068650;28;51040;-47
2021/08/26 02:25:13;;;;;;;;;14.75;13.50;;;;;;;;5071829;28;51057;-49
2021/08/26 02:27:38;;;;;;;;;13.00;13.00;;;;;;;;5066218;28;51156;-48
2021/08/26 02:30:05;;;;;;;;;15.25;14.75;;;;;;;;5070649;28;50911;-49
2021/08/26 02:32:31;;;;;;;;;13.00;13.00;;;;;;;;5045518;28;51196;-47
2021/08/26 02:34:57;;;;;;;;;14.25;13.00;;;;;;;;5071784;28;51930;-47
2021/08/26 02:37:22;;;;;;;;;13.75;13.00;;;;;;;;5069966;28;50934;-50
2021/08/26 02:39:47;;;;;;;;;12.75;12.50;;;;;;;;5063114;28;51654;-49
2021/08/26 02:42:12;;;;;;;;;13.75;13.00;;;;;;;;5066276;28;51013;-50
2021/08/26 02:44:38;;;;;;;;;13.75;13.25;;;;;;;;5061983;28;51057;-51
2021/08/26 02:47:03;;;;;;;;;13.75;13.25;;;;;;;;5072595;28;51073;-51
2021/08/26 02:49:28;;;;;;;;;16.00;15.75;;;;;;;;5074013;28;51314;-48
2021/08/26 02:51:53;;;;;;;;;16.25;15.75;;;;;;;;5075327;28;51023;-49
2021/08/26 02:54:18;;;;;;;;;16.00;16.00;;;;;;;;5074950;28;51132;-51
2021/08/26 02:56:43;;;;;;;;;11.50;11.25;;;;;;;;5071801;28;51198;-49
2021/08/26 02:59:09;;;;;;;;;14.00;13.00;;;;;;;;5070945;27;50925;-48
2021/08/26 03:01:34;;;;;;;;;15.75;15.75;;;;;;;;5053673;28;51256;-51
2021/08/26 03:03:59;;;;;;;;;13.25;13.00;;;;;;;;5074850;28;50989;-48
2021/08/26 03:06:24;;;;;;;;;12.25;12.00;;;;;;;;5073063;28;51140;-48
2021/08/26 03:08:49;;;;;;;;;12.25;11.00;;;;;;;;5054356;28;51192;-47
2021/08/26 03:11:15;;;;;;;;;10.00;9.25;;;;;;;;5072607;28;51126;-51
2021/08/26 03:13:40;;;;;;;;;9.67;9.67;;;;;;;;5074261;28;51126;-48
2021/08/26 03:16:05;;;;;;;;;11.75;11.00;;;;;;;;5074208;28;51277;-48
2021/08/26 03:18:31;;;;;;;;;10.33;9.33;;;;;;;;5073900;28;50978;-48
2021/08/26 03:20:56;;;;;;;;;8.00;8.00;;;;;;;;5071952;28;51094;-48
2021/08/26 03:23:21;;;;;;;;;9.00;8.00;;;;;;;;5062803;28;51943;-47
2021/08/26 03:25:47;;;;;;;;;9.67;8.67;;;;;;;;5073765;28;51039;-49
2021/08/26 03:28:13;;;;;;;;;9.00;8.33;;;;;;;;5044392;28;51252;-50
2021/08/26 03:30:38;;;;;;;;;6.00;6.00;;;;;;;;5053133;28;51131;-51
2021/08/26 03:33:03;;;;;;;;;8.00;8.00;;;;;;;;5065900;28;51846;-48
2021/08/26 03:35:29;;;;;;;;;11.00;8.33;;;;;;;;5074181;28;51515;-49
2021/08/26 03:37:54;;;;;;;;;6.00;6.00;;;;;;;;5074304;28;51061;-48
2021/08/26 03:40:19;;;;;;;;;6.33;6.33;;;;;;;;5064768;28;51331;-50
2021/08/26 03:42:44;;;;;;;;;7.67;7.00;;;;;;;;5072092;28;52287;-50
2021/08/26 03:45:10;;;;;;;;;7.00;6.67;;;;;;;;5074273;28;50951;-48
2021/08/26 03:47:35;;;;;;;;;7.33;6.33;;;;;;;;5067628;27;51121;-47
2021/08/26 03:50:01;;;;;;;;;7.33;6.33;;;;;;;;5071685;28;51173;-48
2021/08/26 03:52:26;;;;;;;;;7.00;7.00;;;;;;;;5074280;28;51088;-48
2021/08/26 03:54:51;;;;;;;;;7.67;7.00;;;;;;;;5073838;28;50853;-49
2021/08/26 03:57:16;;;;;;;;;7.67;7.33;;;;;;;;5073441;28;50899;-47
2021/08/26 03:59:41;;;;;;;;;6.00;6.00;;;;;;;;5071363;28;52015;-48
2021/08/26 04:02:06;;;;;;;;;8.00;7.33;;;;;;;;5074158;28;51193;-48
2021/08/26 04:04:32;;;;;;;;;7.00;6.33;;;;;;;;5074089;28;51045;-49
2021/08/26 04:06:57;;;;;;;;;7.00;6.67;;;;;;;;5070893;28;50919;-47
2021/08/26 04:09:22;;;;;;;;;6.33;6.33;;;;;;;;5063627;28;50890;-49
2021/08/26 04:11:47;;;;;;;;;5.67;4.67;;;;;;;;5071420;28;52465;-48
2021/08/26 04:14:13;;;;;;;;;7.67;7.00;;;;;;;;5048880;28;50973;-48
2021/08/26 04:16:38;;;;;;;;;6.00;5.00;;;;;;;;5065100;28;50989;-50
2021/08/26 04:19:03;;;;;;;;;5.00;4.33;;;;;;;;5054677;28;50930;-47
2021/08/26 04:21:28;;;;;;;;;8.00;8.00;;;;;;;;5073544;28;52105;-49
2021/08/26 04:23:53;;;;;;;;;6.00;6.00;;;;;;;;5072344;28;50957;-46
2021/08/26 04:26:19;;;;;;;;;6.00;6.00;;;;;;;;5073544;28;51232;-49
2021/08/26 04:28:44;;;;;;;;;6.00;5.67;;;;;;;;5073550;28;51285;-47
2021/08/26 04:31:09;;;;;;;;;5.33;5.33;;;;;;;;5057961;28;51005;-52
2021/08/26 04:33:35;;;;;;;;;10.00;7.00;;;;;;;;5048328;28;51046;-49
2021/08/26 04:36:00;;;;;;;;;6.00;5.33;;;;;;;;5073568;28;51492;-49
2021/08/26 04:38:25;;;;;;;;;5.67;5.00;;;;;;;;5070184;28;51124;-49
2021/08/26 04:40:50;;;;;;;;;5.67;5.00;;;;;;;;5069467;28;51703;-49
2021/08/26 04:43:15;;;;;;;;;6.67;6.67;;;;;;;;5071874;28;50939;-51
2021/08/26 04:45:41;;;;;;;;;7.00;6.00;;;;;;;;5073088;28;51146;-50
2021/08/26 04:48:06;;;;;;;;;6.33;5.00;;;;;;;;5073672;28;51150;-48
2021/08/26 04:50:31;;;;;;;;;4.00;4.00;;;;;;;;5073253;28;52146;-49
2021/08/26 04:52:56;;;;;;;;;5.00;5.00;;;;;;;;5070563;28;50887;-49
2021/08/26 04:55:22;;;;;;;;;5.00;5.00;;;;;;;;5071406;28;50989;-48
2021/08/26 04:57:47;;;;;;;;;5.67;5.67;;;;;;;;5072904;28;50984;-49
2021/08/26 05:00:12;;;;;;;;;5.33;5.00;;;;;;;;5068036;27;51192;-50
2021/08/26 05:02:37;;;;;;;;;4.67;4.67;;;;;;;;5064455;28;50919;-49
2021/08/26 05:05:03;;;;;;;;;4.00;4.00;;;;;;;;5072899;28;50981;-46
2021/08/26 05:07:28;;;;;;;;;4.00;4.00;;;;;;;;5053936;28;51275;-48
2021/08/26 05:09:53;;;;;;;;;3.00;3.00;;;;;;;;5072624;28;51256;-52
2021/08/26 05:12:18;;;;;;;;;4.67;4.00;;;;;;;;5070940;28;51389;-50
2021/08/26 05:14:44;;;;;;;;;3.00;2.00;;;;;;;;5072045;28;51353;-47
2021/08/26 05:17:09;;;;;;;;;2.33;2.00;;;;;;;;5072090;28;51249;-49
2021/08/26 05:19:34;;;;;;;;;2.67;2.67;;;;;;;;5048522;28;52741;-48
2021/08/26 05:22:00;;;;;;;;;3.00;3.00;;;;;;;;5063255;28;51007;-51
2021/08/26 05:24:25;;;;;;;;;3.00;3.00;;;;;;;;5072731;28;50847;-49
2021/08/26 05:26:50;;;;;;;;;4.67;4.00;;;;;;;;5064223;28;51264;-49
2021/08/26 05:29:15;;;;;;;;;3.00;3.00;;;;;;;;5071824;28;51769;-49
2021/08/26 05:31:40;;;;;;;;;4.00;4.00;;;;;;;;5063909;28;51112;-48
2021/08/26 05:34:06;;;;;;;;;9.00;6.67;;;;;;;;5065154;28;50828;-51
2021/08/26 05:36:31;;;;;;;;;3.00;3.00;;;;;;;;5063115;28;50902;-48
2021/08/26 05:38:56;;;;;;;;;3.33;2.33;;;;;;;;5069991;28;52114;-51
2021/08/26 05:41:21;;;;;;;;;3.00;3.00;;;;;;;;5065351;28;51157;-49
2021/08/26 05:43:47;;;;;;;;;4.67;4.00;;;;;;;;5057878;28;51112;-49
2021/08/26 05:46:12;;;;;;;;;4.00;4.00;;;;;;;;5072679;28;50875;-48
2021/08/26 05:48:37;;;;;;;;;4.00;4.00;;;;;;;;5057413;27;50966;-47
2021/08/26 05:51:03;;;;;;;;;3.67;3.00;;;;;;;;5041528;28;51160;-47
2021/08/26 05:53:28;;;;;;;;;3.00;3.00;;;;;;;;5058348;28;51057;-48
2021/08/26 05:55:53;;;;;;;;;4.00;4.00;;;;;;;;5059660;27;51319;-51
2021/08/26 05:58:18;;;;;;;;;4.33;4.00;;;;;;;;5050130;28;51307;-50
2021/08/26 06:00:44;;;;;;;;;4.00;4.00;;;;;;;;5069564;28;51325;-49
2021/08/26 06:03:09;;;;;;;;;4.33;3.67;;;;;;;;5061388;28;51045;-46
2021/08/26 06:05:34;;;;;;;;;5.33;4.33;;;;;;;;5070345;28;50924;-49
2021/08/26 06:07:59;;;;;;;;;6.00;5.33;;;;;;;;5047052;28;53912;-47
2021/08/26 06:10:25;;;;;;;;;5.00;4.67;;;;;;;;5071574;28;50836;-47
2021/08/26 06:12:50;;;;;;;;;5.67;5.00;;;;;;;;5061642;28;51427;-48
2021/08/26 06:15:15;;;;;;;;;8.00;6.67;;;;;;;;5070127;28;51515;-49
2021/08/26 06:17:40;;;;;;;;;6.33;5.00;;;;;;;;5052974;28;51240;-48
2021/08/26 06:20:07;;;;;;;;;8.67;8.33;;;;;;;;5062881;28;52076;-48
2021/08/26 06:22:32;;;;;;;;;4.67;4.00;;;;;;;;5075389;27;50939;-49
2021/08/26 06:24:57;;;;;;;;;5.00;5.00;;;;;;;;5075519;28;50895;-51
2021/08/26 06:27:23;;;;;;;;;5.00;5.00;;;;;;;;5062474;28;51136;-50
2021/08/26 06:29:48;;;;;;;;;5.00;5.00;;;;;;;;5061655;28;51069;-50
2021/08/26 06:32:13;;;;;;;;;4.00;4.00;;;;;;;;5074111;27;50920;-48
2021/08/26 06:34:38;;;;;;;;;5.33;4.67;;;;;;;;5072054;28;51326;-47
2021/08/26 06:37:03;;;;;;;;;7.00;6.00;;;;;;;;5070111;28;51013;-48
2021/08/26 06:39:29;;;;;;;;;7.33;7.33;;;;;;;;5068653;28;50966;-46
2021/08/26 06:41:55;;;;;;;;;7.00;6.00;;;;;;;;5071493;28;51218;-49
2021/08/26 06:44:20;;;;;;;;;5.00;4.00;;;;;;;;5059123;28;50867;-48
2021/08/26 06:46:45;;;;;;;;;6.00;5.00;;;;;;;;5071882;28;51911;-49
2021/08/26 06:49:10;;;;;;;;;5.67;4.67;;;;;;;;5072803;28;51076;-51
2021/08/26 06:51:35;;;;;;;;;4.00;4.00;;;;;;;;5059014;28;51282;-48
2021/08/26 06:54:01;;;;;;;;;5.00;5.00;;;;;;;;5074252;28;51477;-50
2021/08/26 06:56:26;;;;;;;;;4.00;4.00;;;;;;;;5073871;28;51759;-50
2021/08/26 06:58:51;;;;;;;;;4.00;4.00;;;;;;;;5074321;28;50904;-49
2021/08/26 07:01:16;;;;;;;;;4.00;4.00;;;;;;;;5072389;27;51269;-48
2021/08/26 07:03:42;;;;;;;;;4.67;4.33;;;;;;;;5062066;28;51315;-49
2021/08/26 07:06:07;;;;;;;;;9.00;8.67;;;;;;;;5055614;28;52761;-49
2021/08/26 07:08:32;;;;;;;;;7.67;7.33;;;;;;;;5074055;28;50954;-46
2021/08/26 07:10:57;;;;;;;;;5.33;5.00;;;;;;;;5074578;28;51143;-50
2021/08/26 07:13:22;;;;;;;;;4.33;4.33;;;;;;;;5074147;28;51151;-48
2021/08/26 07:15:48;;;;;;;;;3.67;3.67;;;;;;;;5071005;27;51903;-47
2021/08/26 07:18:17;;;;;;;;;6.67;6.00;;;;;;;;5060057;28;51271;-51
2021/08/26 07:20:43;;;;;;;;;6.67;5.67;;;;;;;;5060937;28;51208;-51
2021/08/26 07:23:08;;;;;;;;;4.67;4.67;;;;;;;;5066140;28;50994;-51
2021/08/26 07:25:33;;;;;;;;;5.33;5.00;;;;;;;;5061726;28;51214;-49
2021/08/26 07:27:58;;;;;;;;;2.00;2.00;;;;;;;;5054317;28;51197;-47
2021/08/26 07:30:23;;;;;;;;;5.00;4.00;;;;;;;;5073591;28;50986;-46
2021/08/26 07:32:49;;;;;;;;;3.33;3.33;;;;;;;;5064576;28;51276;-47
2021/08/26 07:35:14;;;;;;;;;6.00;6.00;;;;;;;;5055550;28;53605;-47
2021/08/26 07:37:39;;;;;;;;;5.33;5.00;;;;;;;;5073982;28;51136;-51
2021/08/26 07:40:05;;;;;;;;;5.67;5.67;;;;;;;;5055999;28;51061;-49
2021/08/26 07:42:30;;;;;;;;;7.00;6.00;;;;;;;;5073729;27;51094;-47
2021/08/26 07:45:02;;;;;;;;;8.00;8.00;;;;;;;;5074067;28;51985;-50
2021/08/26 07:47:27;;;;;;;;;6.67;6.67;;;;;;;;5073739;28;51163;-50
2021/08/26 07:49:52;;;;;;;;;4.67;4.67;;;;;;;;5055560;28;51128;-48
2021/08/26 07:52:17;;;;;;;;;8.00;7.00;;;;;;;;5074053;28;50863;-50
2021/08/26 07:54:43;;;;;;;;;6.00;5.33;;;;;;;;5073334;28;52402;-47
2021/08/26 07:57:08;;;;;;;;;5.33;4.33;;;;;;;;5073596;28;51192;-49
2021/08/26 07:59:33;;;;;;;;;7.33;7.33;;;;;;;;5073262;28;51169;-48
2021/08/26 08:01:59;;;;;;;;;6.00;6.00;;;;;;;;5073751;28;51241;-46
2021/08/26 08:04:24;;;;;;;;;11.00;10.00;;;;;;;;5073261;28;52027;-50
2021/08/26 08:06:49;;;;;;;;;7.00;6.67;;;;;;;;5073392;28;51019;-47
2021/08/26 08:09:14;;;;;;;;;7.00;5.67;;;;;;;;5073889;28;50905;-49
2021/08/26 08:11:39;;;;;;;;;7.00;5.67;;;;;;;;5073394;28;50909;-50
2021/08/26 08:14:05;;;;;;;;;6.00;5.33;;;;;;;;5054832;28;51724;-48
2021/08/26 08:16:30;;;;;;;;;6.33;6.33;;;;;;;;5073498;28;51121;-48
2021/08/26 08:18:56;;;;;;;;;7.00;6.00;;;;;;;;5072594;28;50828;-50
2021/08/26 08:21:21;;;;;;;;;5.67;5.67;;;;;;;;5073695;28;51101;-50
2021/08/26 08:23:46;;;;;;;;;6.00;5.67;;;;;;;;5073258;28;51205;-51
2021/08/26 08:26:11;;;;;;;;;4.00;4.00;;;;;;;;5073269;28;51011;-49
2021/08/26 08:28:37;;;;;;;;;6.00;5.33;;;;;;;;5072964;28;51208;-49
2021/08/26 08:31:04;;;;;;;;;7.33;6.67;;;;;;;;5073602;28;51166;-49
2021/08/26 08:33:29;;;;;;;;;9.00;7.00;;;;;;;;5063464;28;51599;-48
2021/08/26 08:35:54;;;;;;;;;6.67;6.00;;;;;;;;5072799;28;50954;-50
2021/08/26 08:38:20;;;;;;;;;7.00;6.00;;;;;;;;5073180;28;51108;-51
2021/08/26 08:40:46;;;;;;;;;7.67;7.67;;;;;;;;5073208;28;51265;-51
2021/08/26 08:43:11;;;;;;;;;10.33;7.33;;;;;;;;5072200;28;52728;-50
2021/08/26 08:45:36;;;;;;;;;11.67;9.00;;;;;;;;5054342;28;51561;-47
2021/08/26 08:48:04;;;;;;;;;8.00;8.00;;;;;;;;5072746;28;51239;-51
2021/08/26 08:50:30;;;;;;;;;8.00;8.00;;;;;;;;5072926;28;51177;-50
2021/08/26 08:52:56;;;;;;;;;6.33;6.33;;;;;;;;5072496;28;51045;-47
2021/08/26 08:55:21;;;;;;;;;9.67;8.00;;;;;;;;5072278;28;50890;-51
2021/08/26 08:57:47;;;;;;;;;9.33;8.33;;;;;;;;5072300;28;50894;-47
2021/08/26 09:00:13;;;;;;;;;7.67;7.00;;;;;;;;5072669;28;50928;-48
2021/08/26 09:02:38;;;;;;;;;8.67;8.00;;;;;;;;5068201;27;51983;-47
2021/08/26 09:05:04;;;;;;;;;6.00;5.33;;;;;;;;5069555;28;51903;-49
2021/08/26 09:07:30;;;;;;;;;5.00;5.00;;;;;;;;5072703;28;51084;-48
2021/08/26 09:09:56;;;;;;;;;8.00;7.00;;;;;;;;5054088;28;51188;-49
2021/08/26 09:12:40;;;;;;;;;7.00;6.33;;;;;;;;5071867;28;51352;-49
2021/08/26 09:15:09;;;;;;;;;8.33;7.00;;;;;;;;5041101;28;50842;-47
2021/08/26 09:17:34;;;;;;;;;6.67;6.00;;;;;;;;5072273;28;51153;-49
2021/08/26 09:20:03;;;;;;;;;4.67;4.00;;;;;;;;5072241;28;51101;-50
2021/08/26 09:22:31;;;;;;;;;4.00;4.00;;;;;;;;5071983;28;52167;-49
2021/08/26 09:24:57;;;;;;;;;5.00;5.00;;;;;;;;5072171;28;50958;-49
2021/08/26 09:27:31;;;;;;;;;4.67;4.67;;;;;;;;5071201;28;51297;-50
2021/08/26 09:30:05;;;;;;;;;2.00;2.00;;;;;;;;5072120;28;51070;-49
2021/08/26 09:32:40;;;;;;;;;4.00;4.00;;;;;;;;5063390;28;52770;-48
2021/08/26 09:35:11;;;;;;;;;5.00;4.33;;;;;;;;5071894;28;50957;-50
2021/08/26 09:37:46;;;;;;;;;4.00;3.00;;;;;;;;5071683;28;51107;-51
2021/08/26 09:40:13;;;;;;;;;4.00;4.00;;;;;;;;5072137;28;51044;-51
2021/08/26 09:42:39;;;;;;;;;5.00;4.33;;;;;;;;5053131;28;54232;-48
2021/08/26 09:45:17;;;;;;;;;4.00;4.00;;;;;;;;5071608;28;50887;-48
2021/08/26 09:48:02;;;;;;;;;5.00;5.00;;;;;;;;5053718;28;51261;-49
2021/08/26 09:50:33;;;;;;;;;5.67;5.00;;;;;;;;5071877;28;51249;-50
2021/08/26 09:52:59;;;;;;;;;4.00;4.00;;;;;;;;5071703;28;50977;-49
2021/08/26 09:55:24;;;;;;;;;4.00;4.00;;;;;;;;5055624;28;51119;-49
2021/08/26 09:58:09;;;;;;;;;5.00;4.33;;;;;;;;5074764;28;51256;-49
2021/08/26 10:00:34;;;;;;;;;4.33;4.33;;;;;;;;5062192;28;51502;-50
2021/08/26 10:02:59;;;;;;;;;4.67;4.00;;;;;;;;5055924;28;53251;-50
2021/08/26 10:05:24;;;;;;;;;6.00;6.00;;;;;;;;5056759;28;51040;-50
2021/08/26 10:07:52;;;;;;;;;4.33;4.00;;;;;;;;5074926;28;51048;-50
2021/08/26 10:10:17;;;;;;;;;2.00;2.00;;;;;;;;5075416;28;51041;-50
2021/08/26 10:12:43;;;;;;;;;3.00;3.00;;;;;;;;5056025;28;51932;-49
2021/08/26 10:15:09;;;;;;;;;5.00;4.00;;;;;;;;5074734;28;51055;-49
2021/08/26 10:17:35;;;;;;;;;5.00;4.67;;;;;;;;5036397;28;51046;-49
2021/08/26 10:20:00;;;;;;;;;4.33;4.33;;;;;;;;5075354;28;51196;-49
2021/08/26 10:22:25;;;;;;;;;4.00;4.00;;;;;;;;5056672;28;51523;-49
2021/08/26 10:24:51;;;;;;;;;3.33;3.00;;;;;;;;5074761;28;51030;-47
2021/08/26 10:27:20;;;;;;;;;3.67;3.67;;;;;;;;5074736;28;51161;-47
2021/08/26 10:29:46;;;;;;;;;27.00;26.33;;;;;;;;5074469;28;51146;-51
2021/08/26 10:32:19;;;;;;;;;12.00;12.00;;;;;;;;5046777;28;53195;-48
2021/08/26 10:35:03;;;;;;;;;4.67;4.00;;;;;;;;5056478;28;51003;-47
2021/08/26 10:37:28;;;;;;;;;5.00;4.33;;;;;;;;5055671;28;51163;-48
2021/08/26 10:39:53;;;;;;;;;4.67;4.67;;;;;;;;5074091;28;50947;-49
2021/08/26 10:42:28;;;;;;;;;2.33;2.33;;;;;;;;5073528;28;51923;-49
2021/08/26 10:44:56;;;;;;;;;3.33;2.67;;;;;;;;5074306;28;50968;-49
2021/08/26 10:47:21;;;;;;;;;3.67;3.00;;;;;;;;5073683;28;50965;-50
2021/08/26 10:50:05;;;;;;;;;2.33;2.33;;;;;;;;5074250;28;50889;-51
2021/08/26 10:52:49;;;;;;;;;4.00;4.00;;;;;;;;5073968;28;51264;-49
2021/08/26 10:55:26;;;;;;;;;6.00;5.00;;;;;;;;5073836;28;50973;-48
2021/08/26 10:57:51;;;;;;;;;5.00;5.00;;;;;;;;5054981;28;51009;-48
2021/08/26 11:00:53;;;;;;;;;4.00;3.67;;;;;;;;5073967;28;51422;-50
2021/08/26 11:03:33;;;;;;;;;4.00;3.33;;;;;;;;4989892;28;51225;-49
2021/08/26 11:05:59;;;;;;;;;4.00;3.33;;;;;;;;5056511;28;51271;-48
2021/08/26 11:08:29;;;;;;;;;3.00;3.00;;;;;;;;5055338;28;52426;-48
2021/08/26 11:10:54;;;;;;;;;5.00;4.00;;;;;;;;5074545;28;51260;-51
2021/08/26 11:13:29;;;;;;;;;5.00;4.00;;;;;;;;5072893;28;52471;-49
2021/08/26 11:15:55;;;;;;;;;4.00;4.00;;;;;;;;5073706;28;50956;-49
2021/08/26 11:18:30;;;;;;;;;4.33;4.00;;;;;;;;5073783;28;51180;-49
2021/08/26 11:20:56;;;;;;;;;6.00;4.33;;;;;;;;5073959;28;51200;-50
2021/08/26 11:23:41;;;;;;;;;5.00;4.67;;;;;;;;5073718;28;50999;-48
2021/08/26 11:26:25;;;;;;;;;6.00;6.00;;;;;;;;5073527;27;51017;-51
2021/08/26 11:28:50;;;;;;;;;5.33;4.33;;;;;;;;5073596;28;51186;-50
2021/08/26 11:31:16;;;;;;;;;6.00;6.00;;;;;;;;5072338;28;51159;-47
2021/08/26 11:33:41;;;;;;;;;4.33;4.33;;;;;;;;5066664;28;52227;-49
2021/08/26 11:36:10;;;;;;;;;5.67;5.00;;;;;;;;5073317;28;50946;-47
2021/08/26 11:38:50;;;;;;;;;6.00;5.00;;;;;;;;5073060;28;51113;-47
2021/08/26 11:41:15;;;;;;;;;5.00;5.00;;;;;;;;5073348;28;50785;-47
2021/08/26 11:43:42;;;;;;;;;6.00;5.33;;;;;;;;5072409;28;51183;-48
2021/08/26 11:46:14;;;;;;;;;4.00;4.00;;;;;;;;5072881;28;51006;-47
2021/08/26 11:48:46;;;;;;;;;5.33;5.33;;;;;;;;5072903;28;50864;-48
2021/08/26 11:51:25;;;;;;;;;6.33;6.00;;;;;;;;5073220;28;51005;-48
2021/08/26 11:53:50;;;;;;;;;5.00;4.33;;;;;;;;5072600;28;52084;-46
2021/08/26 11:56:16;;;;;;;;;6.00;6.00;;;;;;;;5072837;28;51316;-52
2021/08/26 11:58:41;;;;;;;;;4.33;4.33;;;;;;;;5072605;28;51154;-49
2021/08/26 12:01:07;;;;;;;;;4.67;4.33;;;;;;;;5072939;28;50942;-51
2021/08/26 12:03:32;;;;;;;;;3.67;3.00;;;;;;;;5072578;28;51708;-48
2021/08/26 12:05:58;;;;;;;;;6.33;6.00;;;;;;;;5072930;28;51229;-49
2021/08/26 12:08:24;;;;;;;;;5.00;4.67;;;;;;;;5072814;28;51120;-48
2021/08/26 12:10:49;;;;;;;;;6.33;5.67;;;;;;;;5054926;28;51421;-51
2021/08/26 12:13:15;;;;;;;;;3.00;3.00;;;;;;;;5072213;28;51501;-51
2021/08/26 12:15:41;;;;;;;;;4.00;4.00;;;;;;;;5072725;28;50923;-51
2021/08/26 12:18:06;;;;;;;;;4.33;3.67;;;;;;;;5071759;28;51319;-49
2021/08/26 12:20:33;;;;;;;;;5.00;4.00;;;;;;;;5073065;28;50830;-47
2021/08/26 12:22:58;;;;;;;;;3.00;3.00;;;;;;;;5072431;28;51874;-49
2021/08/26 12:25:26;;;;;;;;;7.00;6.00;;;;;;;;5072717;28;51097;-48
2021/08/26 12:27:53;;;;;;;;;7.00;6.33;;;;;;;;5072431;28;51232;-47
2021/08/26 12:30:28;;;;;;;;;7.00;6.67;;;;;;;;5072804;28;51300;-48
2021/08/26 12:33:03;;;;;;;;;6.00;6.00;;;;;;;;5063800;28;51120;-47
2021/08/26 12:35:28;;;;;;;;;7.00;7.00;;;;;;;;5072347;28;51014;-49
2021/08/26 12:37:58;;;;;;;;;6.67;6.00;;;;;;;;5072634;28;51033;-50
2021/08/26 12:40:25;;;;;;;;;8.67;8.33;;;;;;;;5072731;28;50931;-48
2021/08/26 12:43:04;;;;;;;;;8.00;7.00;;;;;;;;5071795;28;50942;-48
2021/08/26 12:45:30;;;;;;;;;8.67;7.00;;;;;;;;5071925;28;50952;-51
2021/08/26 12:47:56;;;;;;;;;8.33;8.33;;;;;;;;5072431;28;51226;-48
2021/08/26 12:50:25;;;;;;;;;7.33;7.33;;;;;;;;5072715;28;51136;-48
2021/08/26 12:52:50;;;;;;;;;7.00;7.00;;;;;;;;5072175;28;51210;-50
2021/08/26 12:55:15;;;;;;;;;14.33;12.67;;;;;;;;5071671;28;51256;-49
2021/08/26 12:57:41;;;;;;;;;8.67;8.67;;;;;;;;5071859;28;51070;-48
2021/08/26 13:00:06;;;;;;;;;7.00;7.00;;;;;;;;5072129;28;51045;-49
2021/08/26 13:02:32;;;;;;;;;8.00;8.00;;;;;;;;5053283;28;51309;-47
2021/08/26 13:05:01;;;;;;;;;3.00;2.33;;;;;;;;5068111;27;51191;-47
2021/08/26 13:07:26;;;;;;;;;8.33;8.33;;;;;;;;5072190;28;52337;-48
2021/08/26 13:09:56;;;;;;;;;7.00;7.00;;;;;;;;5053408;28;51061;-50
2021/08/26 13:12:21;;;;;;;;;8.00;8.00;;;;;;;;5071165;28;51305;-47
2021/08/26 13:14:47;;;;;;;;;7.67;7.00;;;;;;;;5071308;28;50987;-50
2021/08/26 13:17:13;;;;;;;;;10.00;9.00;;;;;;;;5071423;28;51194;-48
2021/08/26 13:19:46;;;;;;;;;12.00;12.00;;;;;;;;5071682;28;50956;-49
2021/08/26 13:22:16;;;;;;;;;6.00;6.00;;;;;;;;5071399;28;52755;-50
2021/08/26 13:24:41;;;;;;;;;7.67;7.00;;;;;;;;5071022;28;51032;-51
2021/08/26 13:27:06;;;;;;;;;7.00;6.67;;;;;;;;5071127;28;51166;-47
2021/08/26 13:29:31;;;;;;;;;6.00;5.00;;;;;;;;5071682;28;50960;-50
2021/08/26 13:31:57;;;;;;;;;9.00;7.67;;;;;;;;5063967;28;51259;-49
2021/08/26 13:34:22;;;;;;;;;5.67;5.67;;;;;;;;5069561;28;51131;-50
2021/08/26 13:36:47;;;;;;;;;5.00;5.00;;;;;;;;5053377;28;50945;-50
2021/08/26 13:39:12;;;;;;;;;7.00;6.00;;;;;;;;5071521;28;51300;-50
2021/08/26 13:41:37;;;;;;;;;6.00;5.67;;;;;;;;5071449;28;52328;-49
2021/08/26 13:44:03;;;;;;;;;5.33;4.67;;;;;;;;5071169;28;51061;-50
2021/08/26 13:46:28;;;;;;;;;7.33;7.33;;;;;;;;5071779;28;50995;-49
2021/08/26 13:48:53;;;;;;;;;10.33;10.33;;;;;;;;5071357;28;50903;-48
2021/08/26 13:51:19;;;;;;;;;7.00;6.67;;;;;;;;5071183;28;51089;-49
2021/08/26 13:53:47;;;;;;;;;7.00;6.00;;;;;;;;5070828;28;50881;-49
2021/08/26 13:56:13;;;;;;;;;7.00;7.00;;;;;;;;5052570;28;51042;-50
2021/08/26 13:58:39;;;;;;;;;8.00;8.00;;;;;;;;5062943;28;50901;-49
2021/08/26 14:01:04;;;;;;;;;7.67;7.00;;;;;;;;5070909;28;50947;-51
2021/08/26 14:03:29;;;;;;;;;10.00;8.33;;;;;;;;5071339;28;51070;-48
2021/08/26 14:05:54;;;;;;;;;7.00;7.00;;;;;;;;5070920;28;51047;-47
2021/08/26 14:08:19;;;;;;;;;8.33;8.33;;;;;;;;5071452;28;50968;-49
2021/08/26 14:10:45;;;;;;;;;8.33;8.00;;;;;;;;5071282;28;51259;-48
2021/08/26 14:13:10;;;;;;;;;8.67;7.67;;;;;;;;5070669;28;50959;-48
2021/08/26 14:15:35;;;;;;;;;8.67;8.00;;;;;;;;5052350;28;51026;-49
2021/08/26 14:18:00;;;;;;;;;8.00;8.00;;;;;;;;5070930;28;51386;-47
2021/08/26 14:20:25;;;;;;;;;7.00;7.00;;;;;;;;5070549;28;52410;-46
2021/08/26 14:22:51;;;;;;;;;9.00;8.67;;;;;;;;5070241;28;50937;-48
2021/08/26 14:25:16;;;;;;;;;7.00;6.33;;;;;;;;5070970;28;50922;-48
2021/08/26 14:27:41;;;;;;;;;8.67;8.00;;;;;;;;5070221;28;50919;-50
2021/08/26 14:30:06;;;;;;;;;6.33;6.33;;;;;;;;5052285;28;52145;-48
2021/08/26 14:32:32;;;;;;;;;7.00;6.00;;;;;;;;5043072;28;50923;-48
2021/08/26 14:34:58;;;;;;;;;8.00;7.33;;;;;;;;5070981;28;51108;-51